sensor_id;sensor_type;location;lat;lon;timestamp;pressure;altitude;pressure_sealevel;temperature;humidity
61357;BME280;47227;46.752;23.576;2022-09-27T02:35:00;95106.66;;;12.31;96.80
61357;BME280;47227;46.752;23.576;2022-09-27T02:37:29;95106.77;;;12.28;97.08
61357;BME280;47227;46.752;23.576;2022-09-27T02:39:58;95109.64;;;12.26;96.96
61357;BME280;47227;46.752;23.576;2022-09-27T02:42:28;95113.01;;;12.29;95.66
61357;BME280;47227;46.752;23.576;2022-09-27T02:44:57;95109.06;;;12.32;94.60
61357;BME280;47227;46.752;23.576;2022-09-27T02:47:45;95106.41;;;12.36;94.10
61357;BME280;47227;46.752;23.576;2022-09-27T02:50:36;95108.78;;;12.43;93.52
61357;BME280;47227;46.752;23.576;2022-09-27T02:53:35;95107.14;;;12.47;93.16
61357;BME280;47227;46.752;23.576;2022-09-27T02:56:33;95105.83;;;12.51;92.72
61357;BME280;47227;46.752;23.576;2022-09-27T02:59:44;95107.92;;;12.54;92.52
61357;BME280;47227;46.752;23.576;2022-09-27T03:02:43;95111.37;;;12.56;92.58
61357;BME280;47227;46.752;23.576;2022-09-27T03:05:36;95105.65;;;12.55;92.35
61357;BME280;47227;46.752;23.576;2022-09-27T03:08:06;95100.47;;;12.52;92.03
61357;BME280;47227;46.752;23.576;2022-09-27T03:10:35;95098.26;;;12.54;92.16
61357;BME280;47227;46.752;23.576;2022-09-27T03:13:03;95094.27;;;12.63;92.38
61357;BME280;47227;46.752;23.576;2022-09-27T03:15:33;95086.56;;;12.67;92.39
61357;BME280;47227;46.752;23.576;2022-09-27T03:18:21;95091.46;;;12.74;92.32
61357;BME280;47227;46.752;23.576;2022-09-27T03:21:00;95093.17;;;12.78;92.30
61357;BME280;47227;46.752;23.576;2022-09-27T03:23:44;95100.55;;;12.78;91.86
61357;BME280;47227;46.752;23.576;2022-09-27T03:26:13;95107.98;;;12.78;91.60
61357;BME280;47227;46.752;23.576;2022-09-27T03:28:41;95107.71;;;12.74;91.39
61357;BME280;47227;46.752;23.576;2022-09-27T03:31:09;95102.64;;;12.71;91.28
61357;BME280;47227;46.752;23.576;2022-09-27T03:33:51;95110.55;;;12.67;91.02
61357;BME280;47227;46.752;23.576;2022-09-27T03:36:20;95114.30;;;12.64;90.98
61357;BME280;47227;46.752;23.576;2022-09-27T03:38:48;95112.61;;;12.60;90.75
61357;BME280;47227;46.752;23.576;2022-09-27T03:41:17;95110.38;;;12.55;90.64
61357;BME280;47227;46.752;23.576;2022-09-27T03:43:45;95103.48;;;12.50;90.53
61357;BME280;47227;46.752;23.576;2022-09-27T03:46:13;95105.72;;;12.47;90.76
61357;BME280;47227;46.752;23.576;2022-09-27T03:48:41;95110.37;;;12.46;90.74
61357;BME280;47227;46.752;23.576;2022-09-27T03:51:10;95112.50;;;12.48;90.61
61357;BME280;47227;46.752;23.576;2022-09-27T03:53:39;95107.59;;;12.49;90.62
61357;BME280;47227;46.752;23.576;2022-09-27T03:56:08;95103.73;;;12.51;90.39
61357;BME280;47227;46.752;23.576;2022-09-27T03:58:36;95099.73;;;12.53;90.78
61357;BME280;47227;46.752;23.576;2022-09-27T04:01:04;95097.65;;;12.56;90.99
61357;BME280;47227;46.752;23.576;2022-09-27T04:03:33;95091.88;;;12.61;90.67
61357;BME280;47227;46.752;23.576;2022-09-27T04:06:22;95085.77;;;12.64;90.63
61357;BME280;47227;46.752;23.576;2022-09-27T04:08:51;95080.13;;;12.68;90.91
61357;BME280;47227;46.752;23.576;2022-09-27T04:11:19;95083.19;;;12.67;91.56
61357;BME280;47227;46.752;23.576;2022-09-27T04:13:51;95086.64;;;12.63;93.16
61357;BME280;47227;46.752;23.576;2022-09-27T04:16:20;95080.16;;;12.54;95.19
61357;BME280;47227;46.752;23.576;2022-09-27T04:19:08;95082.05;;;12.30;97.31
61357;BME280;47227;46.752;23.576;2022-09-27T04:21:44;95076.64;;;12.27;96.58
61357;BME280;47227;46.752;23.576;2022-09-27T04:24:13;95076.86;;;12.29;95.18
61357;BME280;47227;46.752;23.576;2022-09-27T04:26:52;95077.16;;;12.30;94.66
61357;BME280;47227;46.752;23.576;2022-09-27T04:29:24;95078.14;;;12.29;94.11
61357;BME280;47227;46.752;23.576;2022-09-27T04:32:00;95077.49;;;12.26;93.78
61357;BME280;47227;46.752;23.576;2022-09-27T04:34:57;95084.76;;;12.23;93.68
61357;BME280;47227;46.752;23.576;2022-09-27T04:37:45;95090.20;;;12.17;93.36
61357;BME280;47227;46.752;23.576;2022-09-27T04:40:27;95097.52;;;12.10;92.95
61357;BME280;47227;46.752;23.576;2022-09-27T04:42:56;95101.61;;;12.02;92.75
61357;BME280;47227;46.752;23.576;2022-09-27T04:45:26;95097.75;;;11.96;92.74
61357;BME280;47227;46.752;23.576;2022-09-27T04:47:54;95097.67;;;11.91;92.41
61357;BME280;47227;46.752;23.576;2022-09-27T04:50:28;95099.40;;;11.86;92.24
61357;BME280;47227;46.752;23.576;2022-09-27T04:53:03;95103.27;;;11.83;93.50
61357;BME280;47227;46.752;23.576;2022-09-27T04:55:51;95106.36;;;11.80;95.19
61357;BME280;47227;46.752;23.576;2022-09-27T04:58:21;95106.33;;;11.78;95.11
61357;BME280;47227;46.752;23.576;2022-09-27T05:00:50;95101.49;;;11.77;94.63
61357;BME280;47227;46.752;23.576;2022-09-27T05:03:38;95101.02;;;11.71;99.15
61357;BME280;47227;46.752;23.576;2022-09-27T05:06:15;95106.48;;;11.73;99.03
61357;BME280;47227;46.752;23.576;2022-09-27T05:08:43;95112.14;;;11.79;98.04
61357;BME280;47227;46.752;23.576;2022-09-27T05:11:22;95108.96;;;11.88;97.14
61357;BME280;47227;46.752;23.576;2022-09-27T05:14:06;95110.98;;;11.97;96.28
61357;BME280;47227;46.752;23.576;2022-09-27T05:16:42;95108.64;;;12.07;95.73
61357;BME280;47227;46.752;23.576;2022-09-27T05:19:30;95108.09;;;12.16;95.30
61357;BME280;47227;46.752;23.576;2022-09-27T05:22:07;95107.08;;;12.24;94.94
61357;BME280;47227;46.752;23.576;2022-09-27T05:24:36;95105.33;;;12.35;94.84
61357;BME280;47227;46.752;23.576;2022-09-27T05:27:07;95101.38;;;12.43;94.35
61357;BME280;47227;46.752;23.576;2022-09-27T05:29:37;95104.29;;;12.51;94.15
61357;BME280;47227;46.752;23.576;2022-09-27T05:32:10;95098.73;;;12.57;93.80
61357;BME280;47227;46.752;23.576;2022-09-27T05:34:40;95099.22;;;12.53;93.52
61357;BME280;47227;46.752;23.576;2022-09-27T05:37:11;95103.03;;;12.51;93.57
61357;BME280;47227;46.752;23.576;2022-09-27T05:39:40;95101.66;;;12.44;93.14
61357;BME280;47227;46.752;23.576;2022-09-27T05:42:08;95108.18;;;12.38;93.27
61357;BME280;47227;46.752;23.576;2022-09-27T05:44:37;95106.80;;;12.46;93.23
61357;BME280;47227;46.752;23.576;2022-09-27T05:47:06;95101.91;;;12.52;92.98
61357;BME280;47227;46.752;23.576;2022-09-27T05:49:34;95103.33;;;12.58;92.85
61357;BME280;47227;46.752;23.576;2022-09-27T05:52:04;95106.05;;;12.66;92.64
61357;BME280;47227;46.752;23.576;2022-09-27T05:54:33;95114.31;;;12.66;92.06
61357;BME280;47227;46.752;23.576;2022-09-27T05:57:04;95110.05;;;12.69;92.31
61357;BME280;47227;46.752;23.576;2022-09-27T05:59:54;95101.10;;;12.73;92.14
61357;BME280;47227;46.752;23.576;2022-09-27T06:02:42;95100.77;;;12.70;91.96
61357;BME280;47227;46.752;23.576;2022-09-27T06:05:37;95103.08;;;12.68;92.38
61357;BME280;47227;46.752;23.576;2022-09-27T06:08:32;95104.77;;;12.77;92.29
61357;BME280;47227;46.752;23.576;2022-09-27T06:11:43;95105.13;;;12.95;92.36
61357;BME280;47227;46.752;23.576;2022-09-27T06:14:14;95107.39;;;13.07;92.05
61357;BME280;47227;46.752;23.576;2022-09-27T06:17:02;95116.52;;;13.04;91.23
61357;BME280;47227;46.752;23.576;2022-09-27T06:19:34;95124.63;;;13.01;91.34
61357;BME280;47227;46.752;23.576;2022-09-27T06:22:02;95123.41;;;13.01;91.58
61357;BME280;47227;46.752;23.576;2022-09-27T06:24:40;95122.67;;;13.04;91.72
61357;BME280;47227;46.752;23.576;2022-09-27T06:27:15;95121.50;;;13.04;91.04
61357;BME280;47227;46.752;23.576;2022-09-27T06:29:51;95122.67;;;13.18;90.97
61357;BME280;47227;46.752;23.576;2022-09-27T06:32:35;95129.87;;;13.33;90.94
61357;BME280;47227;46.752;23.576;2022-09-27T06:35:17;95128.42;;;13.39;90.57
61357;BME280;47227;46.752;23.576;2022-09-27T06:37:57;95137.96;;;13.53;90.84
61357;BME280;47227;46.752;23.576;2022-09-27T06:40:27;95143.50;;;13.63;90.60
61357;BME280;47227;46.752;23.576;2022-09-27T06:43:15;95140.40;;;13.73;90.25
61357;BME280;47227;46.752;23.576;2022-09-27T06:46:02;95137.64;;;13.80;88.99
61357;BME280;47227;46.752;23.576;2022-09-27T06:48:54;95135.59;;;13.84;88.47
61357;BME280;47227;46.752;23.576;2022-09-27T06:51:23;95139.26;;;13.73;86.73
61357;BME280;47227;46.752;23.576;2022-09-27T06:53:54;95138.73;;;13.52;86.44
61357;BME280;47227;46.752;23.576;2022-09-27T07:55:13;95133.74;;;14.50;84.32
61357;BME280;47227;46.752;23.576;2022-09-27T08:09:05;95126.05;;;14.91;81.18
61357;BME280;47227;46.752;23.576;2022-09-27T08:43:44;95112.86;;;16.30;76.18
61357;BME280;47227;46.752;23.576;2022-09-27T09:01:18;95121.98;;;15.80;74.06
61357;BME280;47227;46.752;23.576;2022-09-27T09:15:02;95102.12;;;15.35;74.23
61357;BME280;47227;46.752;23.576;2022-09-27T09:25:54;95087.45;;;16.04;72.69
61357;BME280;47227;46.752;23.576;2022-09-27T09:36:26;95072.79;;;16.55;72.61
61357;BME280;47227;46.752;23.576;2022-09-27T09:47:02;95057.54;;;17.09;69.71
61357;BME280;47227;46.752;23.576;2022-09-27T09:54:21;95058.52;;;17.84;67.20
61357;BME280;47227;46.752;23.576;2022-09-27T10:34:37;94994.93;;;19.47;60.32
61357;BME280;47227;46.752;23.576;2022-09-27T10:40:47;95000.95;;;19.78;58.90
61357;BME280;47227;46.752;23.576;2022-09-27T10:46:30;95007.48;;;19.86;58.42
61357;BME280;47227;46.752;23.576;2022-09-27T10:49:29;95010.71;;;20.23;58.39
61357;BME280;47227;46.752;23.576;2022-09-27T10:52:19;95004.67;;;20.28;56.96
61357;BME280;47227;46.752;23.576;2022-09-27T10:55:00;95001.61;;;20.60;56.65
61357;BME280;47227;46.752;23.576;2022-09-27T10:57:36;94998.55;;;21.02;55.28
61357;BME280;47227;46.752;23.576;2022-09-27T11:00:39;94996.23;;;21.00;54.67
61357;BME280;47227;46.752;23.576;2022-09-27T11:03:14;94994.70;;;20.90;54.79
61357;BME280;47227;46.752;23.576;2022-09-27T11:05:47;94999.84;;;21.15;55.11
61357;BME280;47227;46.752;23.576;2022-09-27T11:08:29;94998.70;;;21.45;53.67
61357;BME280;47227;46.752;23.576;2022-09-27T11:11:25;94998.92;;;21.62;53.68
61357;BME280;47227;46.752;23.576;2022-09-27T11:14:04;94993.37;;;21.81;52.61
61357;BME280;47227;46.752;23.576;2022-09-27T11:16:49;94992.64;;;21.63;52.68
61357;BME280;47227;46.752;23.576;2022-09-27T11:20:14;94986.12;;;21.54;52.76
61357;BME280;47227;46.752;23.576;2022-09-27T11:26:35;94985.64;;;21.13;53.34
61357;BME280;47227;46.752;23.576;2022-09-27T11:43:46;94979.77;;;21.39;54.21
61357;BME280;47227;46.752;23.576;2022-09-27T11:50:48;94971.75;;;20.80;55.42
61357;BME280;47227;46.752;23.576;2022-09-27T11:53:56;94968.73;;;20.71;55.90
61357;BME280;47227;46.752;23.576;2022-09-27T11:56:45;94974.29;;;20.59;56.06
61357;BME280;47227;46.752;23.576;2022-09-27T11:59:39;94971.94;;;20.33;56.18
61357;BME280;47227;46.752;23.576;2022-09-27T12:02:44;94964.08;;;20.23;56.81
61357;BME280;47227;46.752;23.576;2022-09-27T12:05:27;94964.77;;;20.14;57.33
61357;BME280;47227;46.752;23.576;2022-09-27T12:10:57;94965.77;;;20.01;57.46
61357;BME280;47227;46.752;23.576;2022-09-27T12:13:40;94958.93;;;19.87;57.77
61357;BME280;47227;46.752;23.576;2022-09-27T12:16:15;94946.95;;;19.77;57.83
61357;BME280;47227;46.752;23.576;2022-09-27T12:18:55;94943.48;;;19.65;58.23
61357;BME280;47227;46.752;23.576;2022-09-27T12:21:37;94944.48;;;19.55;58.74
61357;BME280;47227;46.752;23.576;2022-09-27T12:24:05;94949.08;;;19.45;58.69
61357;BME280;47227;46.752;23.576;2022-09-27T12:26:40;94956.74;;;19.27;58.90
61357;BME280;47227;46.752;23.576;2022-09-27T12:29:30;94961.35;;;19.11;59.43
61357;BME280;47227;46.752;23.576;2022-09-27T12:32:17;94953.55;;;18.99;60.09
61357;BME280;47227;46.752;23.576;2022-09-27T12:35:14;94948.75;;;18.94;60.26
61357;BME280;47227;46.752;23.576;2022-09-27T12:38:13;94943.92;;;18.90;60.90
61357;BME280;47227;46.752;23.576;2022-09-27T12:40:58;94942.25;;;18.96;61.24
61357;BME280;47227;46.752;23.576;2022-09-27T12:44:01;94943.35;;;19.08;61.41
61357;BME280;47227;46.752;23.576;2022-09-27T12:47:32;94939.16;;;19.18;61.45
61357;BME280;47227;46.752;23.576;2022-09-27T12:54:03;94926.39;;;19.60;60.93
61357;BME280;47227;46.752;23.576;2022-09-27T13:00:11;94915.62;;;19.88;60.32
61357;BME280;47227;46.752;23.576;2022-09-27T13:03:29;94900.32;;;20.23;60.69
61357;BME280;47227;46.752;23.576;2022-09-27T13:09:41;94891.65;;;20.69;58.43
61357;BME280;47227;46.752;23.576;2022-09-27T13:12:48;94884.36;;;20.57;58.70
61357;BME280;47227;46.752;23.576;2022-09-27T13:16:13;94876.07;;;20.51;58.84
61357;BME280;47227;46.752;23.576;2022-09-27T13:19:48;94871.19;;;20.41;59.14
61357;BME280;47227;46.752;23.576;2022-09-27T13:29:20;94889.67;;;20.53;59.05
61357;BME280;47227;46.752;23.576;2022-09-27T13:32:01;94883.42;;;20.56;59.27
61357;BME280;47227;46.752;23.576;2022-09-27T13:34:49;94878.96;;;20.70;59.43
61357;BME280;47227;46.752;23.576;2022-09-27T13:37:45;94871.84;;;21.47;57.46
61357;BME280;47227;46.752;23.576;2022-09-27T13:40:24;94866.92;;;22.61;55.75
61357;BME280;47227;46.752;23.576;2022-09-27T13:43:16;94859.38;;;23.57;52.90
61357;BME280;47227;46.752;23.576;2022-09-27T13:46:01;94857.41;;;24.44;50.82
61357;BME280;47227;46.752;23.576;2022-09-27T13:48:46;94854.35;;;24.96;46.77
61357;BME280;47227;46.752;23.576;2022-09-27T13:54:38;94850.64;;;25.74;46.80
61357;BME280;47227;46.752;23.576;2022-09-27T13:57:37;94855.95;;;26.57;44.77
61357;BME280;47227;46.752;23.576;2022-09-27T13:59:58;94849.16;;;26.94;44.08
61357;BME280;47227;46.752;23.576;2022-09-27T14:02:58;94839.55;;;27.27;41.74
61357;BME280;47227;46.752;23.576;2022-09-27T14:05:36;94834.42;;;27.76;39.42
61357;BME280;47227;46.752;23.576;2022-09-27T14:08:24;94831.47;;;28.10;38.75
61357;BME280;47227;46.752;23.576;2022-09-27T14:10:55;94828.19;;;28.40;38.53
61357;BME280;47227;46.752;23.576;2022-09-27T14:13:24;94827.35;;;28.16;38.19
61357;BME280;47227;46.752;23.576;2022-09-27T14:16:02;94825.48;;;27.96;37.65
61357;BME280;47227;46.752;23.576;2022-09-27T14:18:33;94827.05;;;28.04;37.59
61357;BME280;47227;46.752;23.576;2022-09-27T14:21:26;94823.86;;;28.20;37.09
61357;BME280;47227;46.752;23.576;2022-09-27T14:24:45;94824.67;;;28.24;36.70
61357;BME280;47227;46.752;23.576;2022-09-27T14:27:38;94827.29;;;27.88;37.40
61357;BME280;47227;46.752;23.576;2022-09-27T14:30:23;94828.91;;;27.70;38.13
61357;BME280;47227;46.752;23.576;2022-09-27T14:32:56;94837.11;;;27.61;37.92
61357;BME280;47227;46.752;23.576;2022-09-27T14:35:47;94839.63;;;27.24;38.29
61357;BME280;47227;46.752;23.576;2022-09-27T14:38:32;94842.95;;;26.58;39.28
61357;BME280;47227;46.752;23.576;2022-09-27T14:41:10;94843.30;;;25.78;40.80
61357;BME280;47227;46.752;23.576;2022-09-27T15:03:35;94829.58;;;21.94;50.46
61357;BME280;47227;46.752;23.576;2022-09-27T15:06:54;94826.58;;;21.72;51.99
61357;BME280;47227;46.752;23.576;2022-09-27T15:10:19;94830.30;;;21.39;52.04
61357;BME280;47227;46.752;23.576;2022-09-27T15:20:33;94823.80;;;20.29;55.70
61357;BME280;47227;46.752;23.576;2022-09-27T15:29:39;94822.66;;;19.29;58.27
61357;BME280;47227;46.752;23.576;2022-09-27T16:01:56;94824.75;;;16.64;70.45
61357;BME280;47227;46.752;23.576;2022-09-27T16:07:22;94823.22;;;16.57;68.28
61357;BME280;47227;46.752;23.576;2022-09-27T16:09:52;94815.88;;;16.49;70.12
61357;BME280;47227;46.752;23.576;2022-09-27T16:13:07;94820.05;;;16.38;71.12
61357;BME280;47227;46.752;23.576;2022-09-27T16:16:13;94822.09;;;16.28;70.91
61357;BME280;47227;46.752;23.576;2022-09-27T16:18:47;94820.39;;;16.21;71.87
61357;BME280;47227;46.752;23.576;2022-09-27T16:21:35;94822.27;;;16.09;72.32
61357;BME280;47227;46.752;23.576;2022-09-27T16:24:04;94819.76;;;15.95;73.62
61357;BME280;47227;46.752;23.576;2022-09-27T16:26:55;94822.39;;;15.96;72.19
61357;BME280;47227;46.752;23.576;2022-09-27T16:29:25;94824.13;;;15.91;72.37
61357;BME280;47227;46.752;23.576;2022-09-27T16:31:57;94831.59;;;15.94;71.24
61357;BME280;47227;46.752;23.576;2022-09-27T16:34:29;94830.41;;;15.93;71.95
61357;BME280;47227;46.752;23.576;2022-09-27T16:37:17;94831.22;;;15.84;73.68
61357;BME280;47227;46.752;23.576;2022-09-27T16:46:47;94825.21;;;15.97;72.31
61357;BME280;47227;46.752;23.576;2022-09-27T16:49:35;94828.70;;;16.02;71.92
61357;BME280;47227;46.752;23.576;2022-09-27T16:53:04;94820.67;;;16.02;72.03
61357;BME280;47227;46.752;23.576;2022-09-27T16:56:55;94821.49;;;15.99;72.29
61357;BME280;47227;46.752;23.576;2022-09-27T18:12:21;94830.83;;;15.69;75.46
61357;BME280;47227;46.752;23.576;2022-09-27T18:24:28;94833.33;;;15.69;74.80
61357;BME280;47227;46.752;23.576;2022-09-27T18:26:58;94834.58;;;15.69;75.22
61357;BME280;47227;46.752;23.576;2022-09-27T18:29:32;94832.16;;;15.68;74.70
61357;BME280;47227;46.752;23.576;2022-09-27T18:32:01;94828.38;;;15.64;74.68
61357;BME280;47227;46.752;23.576;2022-09-27T18:34:27;94823.87;;;15.62;74.64
61357;BME280;47227;46.752;23.576;2022-09-27T18:36:57;94824.25;;;15.58;74.74
61357;BME280;47227;46.752;23.576;2022-09-27T18:39:25;94821.42;;;15.53;76.25
61357;BME280;47227;46.752;23.576;2022-09-27T18:42:13;94826.69;;;15.51;75.39
61357;BME280;47227;46.752;23.576;2022-09-27T18:44:40;94822.27;;;15.52;75.26
61357;BME280;47227;46.752;23.576;2022-09-27T18:47:27;94814.54;;;15.54;75.27
61357;BME280;47227;46.752;23.576;2022-09-27T18:50:01;94818.02;;;15.59;75.32
61357;BME280;47227;46.752;23.576;2022-09-27T18:52:51;94813.85;;;15.64;75.21
61357;BME280;47227;46.752;23.576;2022-09-27T18:55:19;94816.20;;;15.69;75.46
61357;BME280;47227;46.752;23.576;2022-09-27T18:58:13;94814.55;;;15.73;75.28
61357;BME280;47227;46.752;23.576;2022-09-27T19:00:45;94803.80;;;15.76;75.49
61357;BME280;47227;46.752;23.576;2022-09-27T19:03:50;94800.27;;;15.74;74.52
61357;BME280;47227;46.752;23.576;2022-09-27T19:06:41;94793.73;;;15.74;74.27
61357;BME280;47227;46.752;23.576;2022-09-27T19:09:35;94790.36;;;15.72;73.55
61357;BME280;47227;46.752;23.576;2022-09-27T19:12:02;94787.67;;;15.68;72.99
61357;BME280;47227;46.752;23.576;2022-09-27T19:14:30;94789.73;;;15.63;72.47
61357;BME280;47227;46.752;23.576;2022-09-27T19:16:58;94792.54;;;15.58;71.93
61357;BME280;47227;46.752;23.576;2022-09-27T19:20:12;94799.52;;;15.51;71.79
61357;BME280;47227;46.752;23.576;2022-09-27T19:23:00;94805.69;;;15.42;71.47
61357;BME280;47227;46.752;23.576;2022-09-27T19:25:27;94814.81;;;15.34;71.10
61357;BME280;47227;46.752;23.576;2022-09-27T19:27:56;94820.56;;;15.27;71.11
61357;BME280;47227;46.752;23.576;2022-09-27T19:30:44;94820.10;;;15.22;70.71
61357;BME280;47227;46.752;23.576;2022-09-27T19:33:38;94826.63;;;15.16;70.45
61357;BME280;47227;46.752;23.576;2022-09-27T19:36:08;94832.34;;;15.10;70.25
61357;BME280;47227;46.752;23.576;2022-09-27T19:38:38;94840.42;;;15.03;70.23
61357;BME280;47227;46.752;23.576;2022-09-27T19:41:30;94857.46;;;14.95;70.44
61357;BME280;47227;46.752;23.576;2022-09-27T19:44:19;94858.11;;;14.86;70.51
61357;BME280;47227;46.752;23.576;2022-09-27T19:47:06;94860.02;;;14.76;71.20
61357;BME280;47227;46.752;23.576;2022-09-27T19:49:53;94860.46;;;14.66;72.02
61357;BME280;47227;46.752;23.576;2022-09-27T19:52:43;94860.05;;;14.54;72.54
61357;BME280;47227;46.752;23.576;2022-09-27T19:56:04;94858.39;;;14.44;72.79
61357;BME280;47227;46.752;23.576;2022-09-27T19:58:40;94856.23;;;14.37;73.75
61357;BME280;47227;46.752;23.576;2022-09-27T20:05:03;94852.88;;;14.20;74.97
61357;BME280;47227;46.752;23.576;2022-09-27T20:07:30;94856.45;;;14.16;74.85
61357;BME280;47227;46.752;23.576;2022-09-27T20:10:00;94857.27;;;14.14;74.72
61357;BME280;47227;46.752;23.576;2022-09-27T20:12:26;94852.85;;;14.13;75.20
61357;BME280;47227;46.752;23.576;2022-09-27T20:14:53;94859.09;;;14.11;75.38
61357;BME280;47227;46.752;23.576;2022-09-27T20:17:19;94862.92;;;14.05;75.46
61357;BME280;47227;46.752;23.576;2022-09-27T20:19:46;94874.43;;;13.98;75.61
61357;BME280;47227;46.752;23.576;2022-09-27T20:22:12;94876.86;;;13.92;75.77
61357;BME280;47227;46.752;23.576;2022-09-27T20:24:39;94878.25;;;13.87;75.65
61357;BME280;47227;46.752;23.576;2022-09-27T20:27:05;94878.44;;;13.81;75.71
61357;BME280;47227;46.752;23.576;2022-09-27T20:29:32;94881.14;;;13.76;75.68
61357;BME280;47227;46.752;23.576;2022-09-27T20:31:59;94880.88;;;13.72;75.77
61357;BME280;47227;46.752;23.576;2022-09-27T20:34:48;94880.75;;;13.68;75.98
61357;BME280;47227;46.752;23.576;2022-09-27T20:37:16;94882.98;;;13.65;75.90
61357;BME280;47227;46.752;23.576;2022-09-27T20:39:42;94880.46;;;13.61;76.06
61357;BME280;47227;46.752;23.576;2022-09-27T20:42:09;94882.90;;;13.56;77.22
61357;BME280;47227;46.752;23.576;2022-09-27T20:44:36;94889.48;;;13.52;76.88
61357;BME280;47227;46.752;23.576;2022-09-27T20:47:03;94895.57;;;13.48;76.96
61357;BME280;47227;46.752;23.576;2022-09-27T20:49:30;94895.56;;;13.41;77.04
61357;BME280;47227;46.752;23.576;2022-09-27T20:51:57;94897.92;;;13.37;77.13
61357;BME280;47227;46.752;23.576;2022-09-27T20:54:24;94897.02;;;13.34;77.43
61357;BME280;47227;46.752;23.576;2022-09-27T20:56:52;94904.70;;;13.33;77.26
61357;BME280;47227;46.752;23.576;2022-09-27T20:59:20;94905.27;;;13.34;77.96
61357;BME280;47227;46.752;23.576;2022-09-27T21:01:49;94908.88;;;13.35;78.27
61357;BME280;47227;46.752;23.576;2022-09-27T21:04:18;94907.75;;;13.35;78.83
61357;BME280;47227;46.752;23.576;2022-09-27T21:06:45;94905.33;;;13.38;78.80
61357;BME280;47227;46.752;23.576;2022-09-27T21:09:12;94900.48;;;13.40;79.26
61357;BME280;47227;46.752;23.576;2022-09-27T21:11:46;94901.30;;;13.42;78.73
61357;BME280;47227;46.752;23.576;2022-09-27T21:14:13;94896.35;;;13.44;78.44
61357;BME280;47227;46.752;23.576;2022-09-27T21:16:40;94895.57;;;13.43;78.55
61357;BME280;47227;46.752;23.576;2022-09-27T21:19:09;94898.95;;;13.43;78.41
61357;BME280;47227;46.752;23.576;2022-09-27T21:21:36;94898.85;;;13.44;78.50
61357;BME280;47227;46.752;23.576;2022-09-27T21:24:03;94898.63;;;13.45;78.38
61357;BME280;47227;46.752;23.576;2022-09-27T21:26:31;94894.41;;;13.45;78.39
61357;BME280;47227;46.752;23.576;2022-09-27T21:29:00;94894.62;;;13.44;78.49
61357;BME280;47227;46.752;23.576;2022-09-27T21:31:29;94896.98;;;13.44;78.12
61357;BME280;47227;46.752;23.576;2022-09-27T21:33:59;94901.60;;;13.45;77.99
61357;BME280;47227;46.752;23.576;2022-09-27T21:36:30;94907.50;;;13.44;77.77
61357;BME280;47227;46.752;23.576;2022-09-27T21:38:58;94910.54;;;13.43;77.59
61357;BME280;47227;46.752;23.576;2022-09-27T21:41:25;94914.55;;;13.40;77.20
61357;BME280;47227;46.752;23.576;2022-09-27T21:43:53;94913.50;;;13.37;77.14
61357;BME280;47227;46.752;23.576;2022-09-27T21:46:27;94913.40;;;13.35;76.89
61357;BME280;47227;46.752;23.576;2022-09-27T21:48:56;94903.95;;;13.34;76.88
61357;BME280;47227;46.752;23.576;2022-09-27T21:51:27;94895.06;;;13.33;76.64
61357;BME280;47227;46.752;23.576;2022-09-27T21:53:56;94890.70;;;13.33;76.50
61357;BME280;47227;46.752;23.576;2022-09-27T21:56:24;94895.49;;;13.32;76.65
61357;BME280;47227;46.752;23.576;2022-09-27T21:58:51;94898.84;;;13.32;78.01
61357;BME280;47227;46.752;23.576;2022-09-27T22:01:22;94895.98;;;13.26;78.57
61357;BME280;47227;46.752;23.576;2022-09-27T22:03:50;94896.61;;;13.21;79.16
61357;BME280;47227;46.752;23.576;2022-09-27T22:06:19;94892.86;;;13.22;77.80
61357;BME280;47227;46.752;23.576;2022-09-27T22:08:47;94890.08;;;13.24;77.56
61357;BME280;47227;46.752;23.576;2022-09-27T22:11:17;94891.64;;;13.28;77.21
61357;BME280;47227;46.752;23.576;2022-09-27T22:13:44;94889.20;;;13.33;77.33
61357;BME280;47227;46.752;23.576;2022-09-27T22:16:13;94893.41;;;13.38;77.10
61357;BME280;47227;46.752;23.576;2022-09-27T22:18:43;94891.75;;;13.42;77.15
61357;BME280;47227;46.752;23.576;2022-09-27T22:21:13;94897.58;;;13.47;77.07
61357;BME280;47227;46.752;23.576;2022-09-27T22:23:40;94898.75;;;13.51;77.16
61357;BME280;47227;46.752;23.576;2022-09-27T22:26:11;94903.10;;;13.52;77.33
61357;BME280;47227;46.752;23.576;2022-09-27T22:28:39;94903.45;;;13.51;77.37
61357;BME280;47227;46.752;23.576;2022-09-27T22:31:06;94904.81;;;13.49;77.83
61357;BME280;47227;46.752;23.576;2022-09-27T22:33:33;94908.02;;;13.45;78.10
61357;BME280;47227;46.752;23.576;2022-09-27T22:36:00;94912.80;;;13.43;77.96
61357;BME280;47227;46.752;23.576;2022-09-27T22:38:27;94912.52;;;13.39;78.03
61357;BME280;47227;46.752;23.576;2022-09-27T22:40:55;94906.42;;;13.34;78.12
61357;BME280;47227;46.752;23.576;2022-09-27T22:43:22;94906.74;;;13.30;78.14
61357;BME280;47227;46.752;23.576;2022-09-27T22:45:49;94903.33;;;13.26;78.17
61357;BME280;47227;46.752;23.576;2022-09-27T22:48:16;94902.14;;;13.21;78.19
61357;BME280;47227;46.752;23.576;2022-09-27T22:50:44;94905.53;;;13.15;78.13
61357;BME280;47227;46.752;23.576;2022-09-27T22:53:11;94912.45;;;13.10;78.30
61357;BME280;47227;46.752;23.576;2022-09-27T22:55:39;94909.88;;;13.04;78.22
61357;BME280;47227;46.752;23.576;2022-09-27T22:58:05;94911.73;;;12.98;78.26
61357;BME280;47227;46.752;23.576;2022-09-27T23:00:32;94914.13;;;12.92;78.22
61357;BME280;47227;46.752;23.576;2022-09-27T23:02:59;94917.06;;;12.88;78.32
61357;BME280;47227;46.752;23.576;2022-09-27T23:05:26;94919.49;;;12.84;78.11
61357;BME280;47227;46.752;23.576;2022-09-27T23:07:52;94917.05;;;12.81;78.13
61357;BME280;47227;46.752;23.576;2022-09-27T23:10:19;94914.81;;;12.77;77.84